Time;durP1;ratioP1;P1;durP2;ratioP2;P2;SDS_P1;SDS_P2;PMS_P1;PMS_P2;Temp;Humidity;BMP_temperature;BMP_pressure;BME280_temperature;BME280_humidity;BME280_pressure;Samples;Min_cycle;Max_cycle;Signal;HPM_P1;HPM_P2
2023/03/19 00:01:36;;;;;;;7.10;3.80;;;10.60;99.90;;;;;;5032169;28;20234;-57
2023/03/19 00:04:03;;;;;;;6.87;3.63;;;10.60;99.90;;;;;;5032247;28;20213;-57
2023/03/19 00:06:30;;;;;;;10.70;4.53;;;10.70;99.90;;;;;;5031974;28;20670;-57
2023/03/19 00:08:57;;;;;;;6.13;4.20;;;10.80;99.90;;;;;;5032216;28;20205;-57
2023/03/19 00:11:23;;;;;;;6.17;3.90;;;10.80;99.90;;;;;;5032200;28;20282;-56
2023/03/19 00:13:50;;;;;;;5.77;3.80;;;10.90;99.90;;;;;;5031996;28;20289;-58
2023/03/19 00:16:18;;;;;;;6.33;4.20;;;10.90;99.90;;;;;;5031969;28;20208;-57
2023/03/19 00:18:45;;;;;;;7.80;3.97;;;10.90;99.90;;;;;;5032224;28;20592;-57
2023/03/19 00:21:12;;;;;;;6.00;3.93;;;10.90;99.90;;;;;;5032226;28;20230;-56
2023/03/19 00:23:39;;;;;;;9.00;3.53;;;10.90;99.90;;;;;;5031905;28;20280;-56
2023/03/19 00:26:06;;;;;;;6.30;3.60;;;10.90;99.90;;;;;;5032167;28;20207;-56
2023/03/19 00:28:34;;;;;;;6.53;3.53;;;10.90;99.90;;;;;;5032050;28;20217;-57
2023/03/19 00:31:07;;;;;;;8.07;3.83;;;10.90;99.90;;;;;;5032259;28;20273;-57
2023/03/19 00:33:36;;;;;;;6.13;3.83;;;10.80;99.90;;;;;;5032424;28;20544;-56
2023/03/19 00:36:04;;;;;;;6.17;3.70;;;10.80;99.90;;;;;;5032034;28;20226;-57
2023/03/19 00:38:31;;;;;;;7.03;3.90;;;10.70;99.90;;;;;;5032254;28;20233;-57
2023/03/19 00:40:58;;;;;;;7.23;3.90;;;10.70;99.90;;;;;;5031877;28;20226;-57
2023/03/19 00:43:25;;;;;;;8.60;4.07;;;10.70;99.90;;;;;;5031920;28;20264;-56
2023/03/19 00:45:54;;;;;;;5.67;3.53;;;10.80;99.90;;;;;;5032233;28;20252;-56
2023/03/19 00:48:21;;;;;;;5.00;3.40;;;10.80;99.90;;;;;;5032071;28;20217;-56
2023/03/19 00:50:50;;;;;;;5.17;3.23;;;10.90;99.90;;;;;;5031916;28;20222;-56
2023/03/19 00:53:17;;;;;;;5.03;3.43;;;11.00;99.90;;;;;;5031592;28;20211;-57
2023/03/19 00:55:44;;;;;;;5.43;3.60;;;11.00;99.90;;;;;;5031724;28;20210;-57
2023/03/19 00:58:11;;;;;;;5.67;3.63;;;11.00;99.90;;;;;;5034845;28;20234;-57
2023/03/19 01:00:38;;;;;;;4.50;3.33;;;11.00;99.90;;;;;;5035011;28;20213;-57
2023/03/19 01:03:05;;;;;;;12.00;3.80;;;11.00;99.90;;;;;;5035470;28;20210;-57
2023/03/19 01:05:34;;;;;;;6.07;3.60;;;11.00;99.90;;;;;;5035052;28;20213;-57
2023/03/19 01:08:02;;;;;;;5.83;3.10;;;11.00;99.90;;;;;;5035302;28;20209;-56
2023/03/19 01:10:29;;;;;;;4.37;3.23;;;11.00;99.90;;;;;;5035376;28;20217;-56
2023/03/19 01:12:56;;;;;;;6.03;3.40;;;11.00;99.90;;;;;;5035848;28;20210;-55
2023/03/19 01:15:23;;;;;;;6.10;3.30;;;11.00;99.90;;;;;;5035022;28;20221;-56
2023/03/19 01:17:50;;;;;;;7.00;3.50;;;11.00;99.90;;;;;;5035881;28;20237;-57
2023/03/19 01:20:17;;;;;;;4.60;3.43;;;11.00;99.90;;;;;;5035446;28;20583;-57
2023/03/19 01:22:45;;;;;;;5.53;3.23;;;10.90;99.90;;;;;;5035603;28;20313;-56
2023/03/19 01:25:14;;;;;;;7.43;3.97;;;10.90;99.90;;;;;;5035586;28;20206;-57
2023/03/19 01:27:41;;;;;;;9.17;4.13;;;10.90;99.90;;;;;;5034957;28;20207;-56
2023/03/19 01:30:09;;;;;;;6.57;3.80;;;10.90;99.90;;;;;;5034933;28;20371;-57
2023/03/19 01:32:36;;;;;;;10.13;3.90;;;10.90;99.90;;;;;;5034754;28;20301;-57
2023/03/19 01:35:03;;;;;;;3.93;3.03;;;10.90;99.90;;;;;;5034693;28;20294;-56
2023/03/19 01:37:30;;;;;;;5.37;3.43;;;10.90;99.90;;;;;;5034944;28;20296;-57
2023/03/19 01:39:57;;;;;;;5.60;3.53;;;11.00;99.90;;;;;;5034823;28;20260;-57
2023/03/19 01:42:25;;;;;;;7.77;3.70;;;11.10;99.90;;;;;;5034552;28;20230;-56
2023/03/19 01:44:52;;;;;;;7.73;5.27;;;11.10;99.90;;;;;;5034288;28;20381;-56
2023/03/19 01:47:29;;;;;;;6.00;3.73;;;11.20;99.90;;;;;;5034571;28;20230;-56
2023/03/19 01:49:57;;;;;;;6.27;3.43;;;11.30;99.90;;;;;;5034892;28;20210;-58
2023/03/19 01:52:26;;;;;;;6.53;4.03;;;11.30;99.90;;;;;;5034941;28;20445;-57
2023/03/19 01:54:55;;;;;;;4.70;3.80;;;11.40;99.90;;;;;;5034230;28;20294;-57
2023/03/19 01:57:25;;;;;;;8.97;3.60;;;11.30;99.90;;;;;;5034549;28;20203;-57
2023/03/19 01:59:54;;;;;;;5.30;3.27;;;11.40;99.90;;;;;;5034771;28;20212;-56
2023/03/19 02:02:26;;;;;;;5.60;3.23;;;11.40;99.90;;;;;;5034613;28;20285;-56
2023/03/19 02:04:58;;;;;;;7.47;3.57;;;11.50;99.90;;;;;;5034614;28;20202;-57
2023/03/19 02:07:26;;;;;;;8.10;3.93;;;11.70;99.90;;;;;;5034550;28;20202;-57
2023/03/19 02:09:53;;;;;;;5.03;3.53;;;11.70;99.90;;;;;;5034174;28;20202;-56
2023/03/19 02:12:20;;;;;;;5.03;3.13;;;11.80;99.90;;;;;;5035228;28;20590;-56
2023/03/19 02:14:48;;;;;;;4.03;3.17;;;11.90;99.90;;;;;;5035158;28;20202;-56
2023/03/19 02:17:15;;;;;;;6.03;3.17;;;11.90;99.90;;;;;;5035387;28;20206;-57
2023/03/19 02:19:49;;;;;;;6.97;3.60;;;12.00;99.90;;;;;;5035100;28;20214;-56
2023/03/19 02:22:19;;;;;;;5.47;3.60;;;12.00;99.90;;;;;;5034998;28;20227;-56
2023/03/19 02:24:52;;;;;;;7.40;3.80;;;12.10;99.90;;;;;;5034224;28;20210;-56
2023/03/19 02:27:21;;;;;;;5.77;3.70;;;11.90;99.90;;;;;;5034627;28;20214;-56
2023/03/19 02:29:48;;;;;;;5.37;3.60;;;11.70;99.90;;;;;;5034211;28;20216;-56
2023/03/19 02:32:15;;;;;;;7.73;4.00;;;11.70;99.90;;;;;;5034317;28;20312;-56
2023/03/19 02:34:43;;;;;;;7.10;4.10;;;11.70;99.90;;;;;;5033747;28;20244;-56
2023/03/19 02:37:15;;;;;;;6.63;4.33;;;11.70;99.90;;;;;;5033767;28;20569;-56
2023/03/19 02:39:49;;;;;;;6.60;3.87;;;11.70;99.90;;;;;;5033985;28;20226;-56
2023/03/19 02:42:18;;;;;;;7.07;4.47;;;11.80;99.90;;;;;;5033621;28;20284;-56
2023/03/19 02:44:47;;;;;;;7.40;4.40;;;11.70;99.90;;;;;;5033536;28;20224;-56
2023/03/19 02:47:14;;;;;;;7.67;4.23;;;11.70;99.90;;;;;;5033463;28;20209;-57
2023/03/19 02:49:41;;;;;;;5.87;4.00;;;11.80;99.90;;;;;;5033639;28;20256;-57
2023/03/19 02:52:08;;;;;;;9.20;4.37;;;11.80;99.90;;;;;;5033244;28;20253;-56
2023/03/19 02:54:35;;;;;;;9.40;4.90;;;12.00;99.90;;;;;;5033402;28;20210;-57
2023/03/19 02:57:02;;;;;;;10.37;4.70;;;12.00;99.90;;;;;;5033359;28;20202;-56
2023/03/19 02:59:29;;;;;;;8.00;5.00;;;12.10;99.90;;;;;;5033303;28;20317;-56
2023/03/19 03:01:58;;;;;;;7.90;4.30;;;12.20;99.90;;;;;;5033960;28;20260;-56
2023/03/19 03:04:25;;;;;;;6.10;4.13;;;12.20;99.90;;;;;;5033145;28;20225;-57
2023/03/19 03:06:52;;;;;;;8.43;4.47;;;12.30;99.90;;;;;;5032945;28;20210;-57
2023/03/19 03:09:19;;;;;;;6.90;4.43;;;12.40;99.90;;;;;;5033393;28;20212;-57
2023/03/19 03:11:46;;;;;;;7.23;4.57;;;12.40;99.90;;;;;;5033187;28;20232;-56
2023/03/19 03:14:13;;;;;;;6.33;4.07;;;12.50;99.90;;;;;;5033162;28;20647;-57
2023/03/19 03:16:40;;;;;;;10.03;4.33;;;12.50;99.90;;;;;;5032769;28;20575;-57
2023/03/19 03:19:08;;;;;;;8.17;4.23;;;12.60;99.90;;;;;;5032687;28;20226;-58
2023/03/19 03:21:35;;;;;;;8.13;3.50;;;12.50;99.90;;;;;;5032466;28;20223;-57
2023/03/19 03:24:02;;;;;;;6.40;4.13;;;12.30;99.90;;;;;;5032537;28;20217;-58
2023/03/19 03:26:28;;;;;;;5.30;3.80;;;12.10;99.90;;;;;;5032934;28;20241;-56
2023/03/19 03:28:55;;;;;;;5.00;3.80;;;11.90;99.90;;;;;;5032973;28;20697;-56
2023/03/19 03:31:22;;;;;;;8.13;4.00;;;11.80;99.90;;;;;;5032454;28;20713;-57
2023/03/19 03:33:50;;;;;;;8.60;4.00;;;11.80;99.90;;;;;;5032272;28;20217;-56
2023/03/19 03:36:19;;;;;;;6.53;3.90;;;11.70;99.90;;;;;;5032745;28;20206;-56
2023/03/19 03:38:45;;;;;;;10.87;3.63;;;11.60;99.90;;;;;;5032565;28;20236;-56
2023/03/19 03:41:12;;;;;;;9.93;3.83;;;11.60;99.90;;;;;;5032510;28;20661;-56
2023/03/19 03:43:39;;;;;;;8.03;3.70;;;11.40;99.90;;;;;;5032334;28;20603;-56
2023/03/19 03:46:07;;;;;;;4.67;3.80;;;11.20;99.90;;;;;;5032301;28;20245;-57
2023/03/19 03:48:34;;;;;;;9.20;4.50;;;10.90;99.90;;;;;;5032219;28;20693;-56
2023/03/19 03:51:02;;;;;;;5.97;3.30;;;10.70;99.90;;;;;;5032460;28;20602;-56
2023/03/19 03:53:30;;;;;;;7.63;3.57;;;10.50;99.90;;;;;;5032364;28;20301;-57
2023/03/19 03:55:57;;;;;;;7.47;3.87;;;10.50;99.90;;;;;;5032109;28;20674;-57
2023/03/19 03:58:24;;;;;;;6.20;3.40;;;10.30;99.90;;;;;;5032346;28;20217;-57
2023/03/19 04:00:51;;;;;;;4.70;3.20;;;10.20;99.90;;;;;;5032057;28;20226;-56
2023/03/19 04:03:18;;;;;;;7.23;3.73;;;10.10;99.90;;;;;;5032634;28;20206;-57
2023/03/19 04:05:45;;;;;;;5.63;3.60;;;10.10;99.90;;;;;;5031841;28;20206;-57
2023/03/19 04:08:12;;;;;;;9.03;3.20;;;10.20;99.90;;;;;;5032251;28;20264;-57
2023/03/19 04:10:42;;;;;;;5.40;3.23;;;10.30;99.90;;;;;;5032010;28;20670;-57
2023/03/19 04:13:09;;;;;;;8.83;3.53;;;10.40;99.90;;;;;;5032420;28;20673;-57
2023/03/19 04:15:36;;;;;;;7.70;3.47;;;10.50;99.90;;;;;;5032088;28;20582;-57
2023/03/19 04:18:04;;;;;;;4.27;3.33;;;10.50;99.90;;;;;;5032492;28;20220;-57
2023/03/19 04:20:31;;;;;;;4.17;3.13;;;10.60;99.90;;;;;;5032280;28;20210;-57
2023/03/19 04:22:57;;;;;;;7.43;3.37;;;10.60;99.90;;;;;;5032212;28;20658;-57
2023/03/19 04:25:24;;;;;;;4.80;3.30;;;10.70;99.90;;;;;;5032093;28;20328;-57
2023/03/19 04:27:52;;;;;;;5.57;3.30;;;10.80;99.90;;;;;;5032304;28;20242;-56
2023/03/19 04:30:19;;;;;;;4.00;3.20;;;10.80;99.90;;;;;;5032346;28;20202;-57
2023/03/19 04:32:46;;;;;;;5.57;3.20;;;10.80;99.90;;;;;;5034381;28;20732;-56
2023/03/19 04:35:13;;;;;;;6.23;3.30;;;10.70;99.90;;;;;;5035577;28;20681;-58
2023/03/19 04:37:40;;;;;;;3.83;3.10;;;10.80;99.90;;;;;;5035601;28;20199;-57
2023/03/19 04:40:09;;;;;;;6.23;3.63;;;10.80;99.90;;;;;;5036028;28;20575;-57
2023/03/19 04:42:35;;;;;;;5.07;2.97;;;10.90;99.90;;;;;;5035627;28;20226;-57
2023/03/19 04:45:04;;;;;;;4.87;3.23;;;10.90;99.90;;;;;;5035672;28;20206;-57
2023/03/19 04:47:31;;;;;;;5.17;3.60;;;10.80;99.90;;;;;;5035970;28;20559;-57
2023/03/19 04:49:58;;;;;;;6.27;3.47;;;10.80;99.90;;;;;;5036305;28;20209;-57
2023/03/19 04:52:25;;;;;;;6.87;3.50;;;11.00;99.90;;;;;;5036394;28;20226;-57
2023/03/19 04:54:51;;;;;;;5.50;3.50;;;11.10;99.90;;;;;;5035405;28;20209;-57
2023/03/19 04:57:18;;;;;;;6.43;3.37;;;11.10;99.90;;;;;;5035475;28;20205;-57
2023/03/19 04:59:45;;;;;;;6.07;3.23;;;11.10;99.90;;;;;;5035152;28;20229;-58
2023/03/19 05:02:14;;;;;;;3.90;3.37;;;11.10;99.90;;;;;;5035332;28;20311;-56
2023/03/19 05:04:41;;;;;;;5.43;3.60;;;11.10;99.90;;;;;;5035196;28;20252;-56
2023/03/19 05:07:08;;;;;;;5.50;3.20;;;11.10;99.90;;;;;;5035334;28;20247;-56
2023/03/19 05:09:35;;;;;;;5.03;3.57;;;11.10;99.90;;;;;;5035406;28;20206;-56
2023/03/19 05:12:01;;;;;;;7.07;3.40;;;11.10;99.90;;;;;;5035177;28;20226;-57
2023/03/19 05:14:28;;;;;;;3.93;3.13;;;11.20;99.90;;;;;;5034792;28;20209;-57
2023/03/19 05:16:55;;;;;;;6.67;3.30;;;11.30;99.90;;;;;;5034869;28;20629;-56
2023/03/19 05:19:24;;;;;;;5.60;3.70;;;11.30;99.90;;;;;;5034878;28;20225;-57
2023/03/19 05:21:50;;;;;;;4.40;3.30;;;11.30;99.90;;;;;;5034565;28;20226;-57
2023/03/19 05:24:17;;;;;;;3.93;3.00;;;11.40;99.90;;;;;;5034648;28;20272;-57
2023/03/19 05:26:45;;;;;;;5.60;3.43;;;11.40;99.90;;;;;;5034660;28;20399;-57
2023/03/19 05:29:13;;;;;;;5.27;3.47;;;11.40;99.90;;;;;;5034848;28;20267;-57
2023/03/19 05:31:40;;;;;;;6.17;3.47;;;11.30;99.90;;;;;;5034554;28;20706;-56
2023/03/19 05:34:07;;;;;;;3.80;3.00;;;11.20;99.90;;;;;;5034491;28;20216;-57
2023/03/19 05:36:35;;;;;;;6.53;3.23;;;11.10;99.90;;;;;;5034500;28;20218;-57
2023/03/19 05:39:02;;;;;;;4.47;2.90;;;11.00;99.90;;;;;;5034688;28;20234;-56
2023/03/19 05:41:29;;;;;;;4.87;3.30;;;10.90;99.90;;;;;;5034530;28;20238;-57
2023/03/19 05:43:56;;;;;;;5.23;3.00;;;10.90;99.90;;;;;;5034336;28;20217;-56
2023/03/19 05:46:23;;;;;;;5.47;3.20;;;10.90;99.90;;;;;;5034374;28;20674;-57
2023/03/19 05:48:50;;;;;;;4.43;3.10;;;11.00;99.90;;;;;;5034408;28;20207;-57
2023/03/19 05:51:17;;;;;;;4.43;3.10;;;11.10;99.90;;;;;;5034264;28;20226;-57
2023/03/19 05:53:45;;;;;;;7.30;3.60;;;11.20;99.90;;;;;;5034696;28;20221;-57
2023/03/19 05:56:12;;;;;;;4.37;3.27;;;11.20;99.90;;;;;;5034544;28;20202;-57
2023/03/19 05:58:39;;;;;;;5.07;3.03;;;11.10;99.90;;;;;;5034437;28;20206;-57
2023/03/19 06:01:05;;;;;;;4.50;3.23;;;11.00;99.90;;;;;;5034119;28;20242;-57
2023/03/19 06:03:32;;;;;;;4.43;3.13;;;11.20;99.90;;;;;;5034255;28;20274;-57
2023/03/19 06:06:00;;;;;;;4.63;3.07;;;11.30;99.90;;;;;;5033477;28;20580;-57
2023/03/19 06:08:27;;;;;;;7.03;3.10;;;11.40;99.90;;;;;;5033943;28;20297;-57
2023/03/19 06:10:55;;;;;;;3.97;2.90;;;11.50;99.90;;;;;;5033817;28;20226;-57
2023/03/19 06:13:22;;;;;;;5.60;3.10;;;11.50;99.90;;;;;;5033910;28;20217;-57
2023/03/19 06:15:49;;;;;;;4.80;2.93;;;11.40;99.90;;;;;;5033763;28;20221;-57
2023/03/19 06:18:16;;;;;;;5.37;2.90;;;11.50;99.90;;;;;;5033546;28;20289;-57
2023/03/19 06:20:43;;;;;;;2.83;2.37;;;11.60;99.90;;;;;;5033364;28;20226;-56
2023/03/19 06:23:10;;;;;;;5.87;2.77;;;11.60;99.90;;;;;;5033710;28;20210;-56
2023/03/19 06:25:37;;;;;;;4.73;2.70;;;11.60;99.90;;;;;;5033456;28;20249;-57
2023/03/19 06:28:06;;;;;;;3.53;2.83;;;11.70;99.90;;;;;;5033687;28;20217;-57
2023/03/19 06:30:33;;;;;;;4.10;2.40;;;11.80;99.90;;;;;;5033387;28;20198;-57
2023/03/19 06:33:00;;;;;;;4.03;2.43;;;11.90;99.90;;;;;;5033940;28;20202;-57
2023/03/19 06:35:27;;;;;;;4.10;2.37;;;12.10;99.90;;;;;;5033370;28;20221;-57
2023/03/19 06:37:54;;;;;;;6.57;3.00;;;12.20;99.90;;;;;;5033364;28;20701;-57
2023/03/19 06:40:21;;;;;;;5.63;2.67;;;12.40;99.90;;;;;;5033379;28;20245;-57
2023/03/19 06:42:48;;;;;;;4.73;3.07;;;12.40;99.90;;;;;;5033107;28;20612;-58
2023/03/19 06:45:18;;;;;;;3.70;3.00;;;12.40;99.90;;;;;;5033137;28;20211;-57
2023/03/19 06:47:46;;;;;;;5.20;3.03;;;12.40;99.90;;;;;;5033245;28;20232;-57
2023/03/19 06:50:15;;;;;;;5.30;2.97;;;12.40;99.90;;;;;;5033261;28;20685;-57
2023/03/19 06:52:42;;;;;;;5.20;2.53;;;12.50;99.90;;;;;;5033000;28;20241;-57
2023/03/19 06:55:10;;;;;;;4.57;3.00;;;12.70;99.90;;;;;;5032540;28;20602;-57
2023/03/19 06:57:37;;;;;;;4.87;2.67;;;12.80;99.90;;;;;;5033072;28;20617;-57
2023/03/19 07:00:05;;;;;;;3.77;2.50;;;12.90;99.90;;;;;;5032784;28;20224;-57
2023/03/19 07:02:34;;;;;;;3.60;2.47;;;13.00;99.90;;;;;;5032870;28;20234;-57
2023/03/19 07:05:01;;;;;;;5.17;2.50;;;13.10;99.90;;;;;;5032620;28;20210;-57
2023/03/19 07:07:28;;;;;;;2.43;2.20;;;13.10;99.90;;;;;;5032777;28;20294;-57
2023/03/19 07:09:54;;;;;;;3.80;2.30;;;13.30;99.90;;;;;;5032750;28;20210;-57
2023/03/19 07:12:21;;;;;;;3.57;2.50;;;13.50;99.90;;;;;;5032972;28;20231;-57
2023/03/19 07:14:48;;;;;;;3.23;2.50;;;13.70;99.90;;;;;;5032581;28;20217;-56
2023/03/19 07:17:15;;;;;;;6.20;2.73;;;13.80;99.90;;;;;;5032749;28;20860;-57
2023/03/19 07:19:43;;;;;;;4.70;2.63;;;13.90;99.90;;;;;;5032570;28;20234;-56
2023/03/19 07:22:10;;;;;;;4.20;2.70;;;13.90;99.90;;;;;;5032678;28;20253;-57
2023/03/19 07:24:36;;;;;;;3.70;2.60;;;13.90;99.90;;;;;;5032710;28;20206;-58
2023/03/19 07:27:03;;;;;;;4.53;2.90;;;13.90;99.90;;;;;;5033016;28;20212;-57
2023/03/19 07:29:30;;;;;;;4.00;2.40;;;13.90;99.90;;;;;;5033007;28;20206;-57
2023/03/19 07:31:57;;;;;;;4.60;3.20;;;14.00;99.90;;;;;;5033055;28;20226;-57
2023/03/19 07:34:25;;;;;;;4.23;2.60;;;14.20;99.90;;;;;;5032804;28;20245;-57
2023/03/19 07:36:53;;;;;;;3.67;2.30;;;14.40;99.90;;;;;;5032773;28;20210;-57
2023/03/19 07:39:20;;;;;;;3.87;2.57;;;14.30;99.90;;;;;;5032924;28;20230;-58
2023/03/19 07:41:48;;;;;;;2.77;1.80;;;14.30;99.90;;;;;;5032992;28;20325;-57
2023/03/19 07:44:15;;;;;;;3.83;2.47;;;14.20;99.90;;;;;;5033303;28;20591;-56
2023/03/19 07:46:42;;;;;;;4.57;2.23;;;14.30;99.90;;;;;;5033744;28;20206;-59
2023/03/19 07:49:09;;;;;;;3.37;2.37;;;14.40;99.90;;;;;;5033696;28;20214;-60
2023/03/19 07:51:36;;;;;;;3.43;2.50;;;14.40;99.90;;;;;;5033496;28;20714;-61
2023/03/19 07:54:05;;;;;;;4.47;2.60;;;14.60;99.90;;;;;;5033894;28;20625;-60
2023/03/19 07:56:32;;;;;;;4.03;2.30;;;15.00;99.90;;;;;;5036749;28;20210;-66
2023/03/19 07:58:59;;;;;;;3.20;2.63;;;15.30;99.90;;;;;;5037276;28;20305;-65
2023/03/19 08:01:26;;;;;;;3.33;2.33;;;15.50;99.90;;;;;;5033176;28;20240;-58
2023/03/19 08:03:53;;;;;;;4.20;2.40;;;15.60;99.90;;;;;;5034716;28;20218;-64
2023/03/19 08:06:20;;;;;;;6.57;2.67;;;15.60;99.90;;;;;;5034406;28;20206;-59
2023/03/19 08:08:47;;;;;;;4.87;2.67;;;15.60;99.90;;;;;;5036602;28;20245;-59
2023/03/19 08:11:15;;;;;;;4.33;3.03;;;15.70;99.90;;;;;;5036844;28;20233;-58
2023/03/19 08:13:42;;;;;;;4.40;2.47;;;15.70;99.90;;;;;;5036749;28;20292;-59
2023/03/19 08:16:10;;;;;;;6.85;2.40;;;15.70;99.90;;;;;;5036405;28;20622;-58
2023/03/19 08:18:37;;;;;;;3.30;2.10;;;15.50;99.90;;;;;;5036799;28;20206;-58
2023/03/19 08:21:04;;;;;;;3.65;2.42;;;15.30;99.90;;;;;;5036618;28;20241;-60
2023/03/19 08:23:31;;;;;;;3.30;2.40;;;15.20;99.90;;;;;;5036589;28;20592;-59
2023/03/19 08:25:58;;;;;;;4.47;2.87;;;15.30;99.90;;;;;;5036312;28;20670;-60
2023/03/19 08:28:26;;;;;;;3.87;2.20;;;15.50;99.90;;;;;;5036290;28;20210;-60
2023/03/19 08:30:54;;;;;;;3.88;2.17;;;15.70;99.90;;;;;;5036312;28;20222;-58
2023/03/19 08:33:21;;;;;;;3.53;2.67;;;15.70;99.90;;;;;;5036166;28;20210;-59
2023/03/19 08:35:48;;;;;;;4.05;2.80;;;15.70;99.90;;;;;;5035485;28;20213;-58
2023/03/19 08:38:16;;;;;;;4.57;2.23;;;15.60;99.90;;;;;;5036222;28;20206;-59
2023/03/19 08:40:42;;;;;;;3.57;2.10;;;15.50;99.90;;;;;;5035702;28;20230;-59
2023/03/19 08:43:09;;;;;;;4.10;2.10;;;15.40;99.90;;;;;;5035816;28;20206;-59
2023/03/19 08:45:37;;;;;;;3.90;2.80;;;15.30;99.90;;;;;;5035574;28;20216;-59
2023/03/19 08:48:04;;;;;;;5.60;2.67;;;15.50;99.90;;;;;;5035968;28;20206;-59
2023/03/19 08:50:31;;;;;;;5.87;2.10;;;15.80;99.90;;;;;;5035769;28;20678;-59
2023/03/19 08:52:57;;;;;;;3.60;2.30;;;16.10;99.90;;;;;;5035704;28;20572;-58
2023/03/19 08:55:24;;;;;;;5.05;2.33;;;16.60;99.90;;;;;;5035849;28;20264;-60
2023/03/19 08:57:51;;;;;;;2.80;2.10;;;16.90;99.90;;;;;;5035597;28;20206;-59
2023/03/19 09:00:19;;;;;;;4.65;3.80;;;17.20;99.90;;;;;;5035192;28;20226;-57
2023/03/19 09:02:47;;;;;;;6.03;2.90;;;17.30;99.90;;;;;;5097093;22;20232;-63
2023/03/19 09:05:14;;;;;;;3.97;1.80;;;17.40;99.90;;;;;;5094188;28;20222;-63
2023/03/19 09:07:40;;;;;;;4.32;2.20;;;17.50;99.90;;;;;;5094788;28;20238;-63
2023/03/19 09:10:08;;;;;;;3.42;1.92;;;17.40;99.90;;;;;;5094862;28;20617;-62
2023/03/19 09:12:34;;;;;;;3.38;1.98;;;17.30;99.90;;;;;;5094551;28;20591;-63
2023/03/19 09:15:02;;;;;;;4.25;2.33;;;17.00;99.90;;;;;;5094331;28;20200;-63
2023/03/19 09:17:29;;;;;;;3.42;1.95;;;16.90;99.90;;;;;;5093885;28;20578;-63
2023/03/19 09:19:57;;;;;;;3.95;2.10;;;16.90;99.90;;;;;;5094382;28;20745;-63
2023/03/19 09:22:24;;;;;;;2.70;2.13;;;17.00;99.90;;;;;;5094120;28;20228;-63
2023/03/19 09:24:51;;;;;;;2.72;1.88;;;16.90;99.90;;;;;;5094221;28;20250;-64
2023/03/19 09:27:19;;;;;;;3.83;2.42;;;17.00;99.90;;;;;;5094227;28;20744;-64
2023/03/19 09:29:46;;;;;;;3.03;2.50;;;17.00;99.90;;;;;;5094396;28;20204;-63
2023/03/19 09:32:13;;;;;;;3.45;2.30;;;17.30;99.90;;;;;;5093855;28;20235;-63
2023/03/19 09:34:39;;;;;;;4.90;2.60;;;17.30;99.90;;;;;;5094037;28;20204;-63
2023/03/19 09:37:10;;;;;;;2.85;1.60;;;17.30;99.90;;;;;;5094225;28;20200;-64
2023/03/19 09:39:37;;;;;;;3.00;2.28;;;17.00;99.90;;;;;;5094127;28;20208;-63
2023/03/19 09:42:21;;;;;;;2.40;1.45;;;17.00;99.90;;;;;;5094036;28;20220;-62
2023/03/19 09:44:49;;;;;;;2.83;1.55;;;17.00;99.90;;;;;;5093544;28;20620;-63
2023/03/19 09:47:26;;;;;;;3.15;1.70;;;17.10;99.90;;;;;;5094005;28;20208;-63
2023/03/19 09:49:56;;;;;;;4.70;1.90;;;17.40;99.90;;;;;;5093668;28;20204;-63
2023/03/19 09:52:33;;;;;;;4.78;1.73;;;17.70;99.90;;;;;;5093996;28;20315;-63
2023/03/19 09:55:07;;;;;;;2.90;1.75;;;18.10;99.90;;;;;;5093471;28;20204;-62
2023/03/19 09:57:35;;;;;;;5.35;2.33;;;18.30;99.90;;;;;;5094031;28;20215;-63
2023/03/19 10:00:06;;;;;;;2.33;1.40;;;18.50;99.90;;;;;;5094361;28;20212;-62
2023/03/19 10:02:40;;;;;;;2.65;1.80;;;18.70;99.90;;;;;;5094161;28;20743;-63
2023/03/19 10:05:19;;;;;;;1.90;1.60;;;18.70;99.90;;;;;;5094238;28;20207;-62
2023/03/19 10:08:06;;;;;;;2.78;1.35;;;18.80;99.90;;;;;;5094123;28;20207;-63
2023/03/19 10:10:48;;;;;;;3.85;1.80;;;18.90;99.90;;;;;;5093674;28;20204;-64
2023/03/19 10:13:29;;;;;;;2.45;1.70;;;19.00;99.90;;;;;;5093403;28;20200;-63
2023/03/19 10:15:57;;;;;;;3.15;1.83;;;19.30;99.90;;;;;;5092909;28;20243;-63
2023/03/19 10:18:28;;;;;;;2.83;1.30;;;19.50;99.90;;;;;;5093338;28;20235;-63
2023/03/19 10:20:58;;;;;;;4.70;1.95;;;19.70;99.30;;;;;;5093302;28;20228;-63
2023/03/19 10:23:37;;;;;;;2.10;1.60;;;19.60;98.90;;;;;;5094029;28;20201;-63
2023/03/19 10:26:09;;;;;;;2.47;1.60;;;19.60;98.60;;;;;;5093045;28;20212;-63
2023/03/19 10:28:36;;;;;;;4.32;1.70;;;19.60;98.10;;;;;;5093177;28;20204;-63
2023/03/19 10:31:14;;;;;;;2.10;1.48;;;19.60;97.60;;;;;;5092541;28;20207;-63
2023/03/19 10:33:44;;;;;;;5.15;1.85;;;19.50;97.80;;;;;;5092907;28;20207;-63
2023/03/19 10:36:12;;;;;;;2.55;1.30;;;19.50;97.30;;;;;;5092677;28;20213;-63
2023/03/19 10:38:42;;;;;;;2.70;1.60;;;19.40;97.10;;;;;;5093265;28;20204;-62
2023/03/19 10:41:23;;;;;;;2.63;1.63;;;19.00;97.50;;;;;;5092686;28;20646;-63
2023/03/19 10:43:54;;;;;;;2.13;1.50;;;19.00;97.00;;;;;;5092791;28;20211;-64
2023/03/19 10:46:21;;;;;;;3.97;1.73;;;19.10;97.00;;;;;;5094787;28;20443;-63
2023/03/19 10:48:48;;;;;;;8.02;2.83;;;19.30;95.80;;;;;;5103605;28;20899;-63
2023/03/19 10:51:16;;;;;;;4.63;1.70;;;19.40;94.80;;;;;;5091593;28;20285;-64
2023/03/19 10:53:44;;;;;;;4.60;1.52;;;19.50;95.20;;;;;;5091633;28;20212;-61
2023/03/19 10:56:18;;;;;;;2.50;1.60;;;19.60;95.40;;;;;;5091085;28;20212;-65
2023/03/19 10:58:58;;;;;;;5.53;1.77;;;19.60;95.50;;;;;;5091001;28;20291;-63
2023/03/19 11:01:28;;;;;;;2.65;1.50;;;19.60;94.50;;;;;;5091256;28;20247;-65
2023/03/19 11:03:57;;;;;;;4.15;1.85;;;19.70;94.20;;;;;;5081719;28;20200;-63
2023/03/19 11:06:26;;;;;;;2.33;1.60;;;19.60;94.20;;;;;;5083293;28;20207;-64
2023/03/19 11:08:58;;;;;;;2.30;1.50;;;19.70;94.20;;;;;;5091714;28;20204;-63
2023/03/19 11:11:35;;;;;;;4.90;1.90;;;19.80;94.40;;;;;;5091414;28;20285;-63
2023/03/19 11:14:10;;;;;;;2.33;1.70;;;20.00;94.70;;;;;;5092104;28;20203;-65
2023/03/19 11:16:57;;;;;;;3.70;2.20;;;20.00;94.60;;;;;;5092847;28;20299;-63
2023/03/19 11:19:26;;;;;;;4.57;2.70;;;20.20;94.00;;;;;;5093082;28;20312;-63
2023/03/19 11:22:00;;;;;;;4.05;1.80;;;20.30;94.40;;;;;;5093937;28;20254;-63
2023/03/19 11:24:32;;;;;;;4.70;1.55;;;20.30;94.40;;;;;;5092112;28;20204;-63
2023/03/19 11:26:59;;;;;;;3.95;2.10;;;20.40;94.60;;;;;;5091155;28;20715;-63
2023/03/19 11:29:27;;;;;;;2.35;1.48;;;20.40;94.90;;;;;;5091232;28;20204;-63
2023/03/19 11:32:03;;;;;;;6.30;2.25;;;20.40;94.90;;;;;;5090370;28;20220;-63
2023/03/19 11:34:39;;;;;;;17.42;7.22;;;20.40;94.90;;;;;;5091169;28;20203;-63
2023/03/19 11:37:16;;;;;;;6.13;1.83;;;20.60;95.00;;;;;;5091731;28;20238;-63
2023/03/19 11:39:54;;;;;;;4.07;2.88;;;20.80;94.90;;;;;;5091319;28;20272;-64
2023/03/19 11:42:45;;;;;;;5.53;2.20;;;21.00;94.50;;;;;;5090699;28;20358;-64
2023/03/19 11:45:24;;;;;;;3.05;1.80;;;21.30;94.00;;;;;;5090290;28;20216;-64
2023/03/19 11:48:00;;;;;;;2.78;2.03;;;21.50;93.60;;;;;;5090930;28;20200;-63
2023/03/19 11:50:35;;;;;;;2.65;1.80;;;21.90;93.20;;;;;;5091473;28;20203;-65
2023/03/19 11:53:18;;;;;;;4.35;2.38;;;22.00;92.60;;;;;;5091489;28;20219;-64
2023/03/19 11:55:52;;;;;;;3.47;2.35;;;22.20;92.50;;;;;;5090464;28;20216;-66
2023/03/19 11:58:51;;;;;;;3.33;2.20;;;22.30;91.50;;;;;;5090867;28;20211;-65
2023/03/19 12:01:32;;;;;;;3.25;1.92;;;22.40;91.40;;;;;;5083903;28;20228;-64
2023/03/19 12:04:16;;;;;;;3.13;1.85;;;22.50;90.60;;;;;;5090845;28;20253;-64
2023/03/19 12:06:53;;;;;;;1.80;1.60;;;22.60;90.60;;;;;;5090620;28;20307;-64
2023/03/19 12:09:28;;;;;;;5.43;1.73;;;22.90;89.40;;;;;;5090672;28;20208;-64
2023/03/19 12:12:05;;;;;;;3.83;1.88;;;23.00;88.00;;;;;;5090488;28;20224;-64
2023/03/19 12:14:49;;;;;;;2.65;1.70;;;23.00;87.60;;;;;;5090404;28;20204;-64
2023/03/19 12:17:28;;;;;;;4.28;2.50;;;23.00;88.00;;;;;;5090880;28;20261;-64
2023/03/19 12:20:15;;;;;;;2.83;1.60;;;22.80;86.70;;;;;;5090453;28;20676;-64
2023/03/19 12:22:55;;;;;;;2.33;1.45;;;22.70;86.40;;;;;;5090371;28;20231;-64
2023/03/19 12:25:35;;;;;;;2.85;1.58;;;22.60;84.70;;;;;;5090480;28;20208;-64
2023/03/19 12:28:10;;;;;;;4.82;1.80;;;22.50;85.50;;;;;;5090693;28;20261;-63
2023/03/19 12:30:41;;;;;;;3.50;1.75;;;22.70;85.10;;;;;;5090783;28;20631;-63
2023/03/19 12:33:23;;;;;;;2.17;1.42;;;23.00;83.90;;;;;;5090467;28;20726;-64
2023/03/19 12:35:55;;;;;;;4.32;1.42;;;23.30;82.30;;;;;;5090268;28;20204;-63
2023/03/19 12:38:27;;;;;;;3.40;2.47;;;23.30;81.00;;;;;;5090861;28;20204;-63
2023/03/19 12:40:58;;;;;;;4.30;1.95;;;23.40;80.90;;;;;;5090377;28;20692;-63
2023/03/19 12:43:32;;;;;;;3.10;1.50;;;23.40;80.70;;;;;;5090640;28;20204;-63
2023/03/19 12:46:05;;;;;;;3.42;1.70;;;23.50;80.00;;;;;;5089663;28;20217;-64
2023/03/19 12:48:40;;;;;;;2.42;1.63;;;23.50;80.00;;;;;;5090781;28;20239;-64
2023/03/19 12:51:11;;;;;;;2.50;1.45;;;23.60;79.60;;;;;;5090543;28;20227;-62
2023/03/19 12:53:45;;;;;;;3.17;1.50;;;23.60;78.90;;;;;;5092709;28;20208;-64
2023/03/19 12:56:17;;;;;;;2.60;1.52;;;23.60;78.30;;;;;;5093747;28;20203;-62